createdAt,value
2019-04-14T00:02:03.188Z,20.40
2019-04-14T00:04:36.814Z,21.40
2019-04-14T00:07:07.884Z,19.40
2019-04-14T00:09:38.036Z,20.73
2019-04-14T00:12:10.489Z,20.57
2019-04-14T00:14:40.370Z,20.30
2019-04-14T00:17:09.376Z,19.40
2019-04-14T00:19:39.155Z,20.93
2019-04-14T00:22:09.358Z,19.93
2019-04-14T00:24:38.460Z,20.83
2019-04-14T00:27:08.431Z,21.13
2019-04-14T00:29:37.433Z,19.67
2019-04-14T00:32:07.337Z,20.87
2019-04-14T00:35:04.529Z,19.97
2019-04-14T00:37:40.979Z,19.77
2019-04-14T00:40:26.669Z,19.63
2019-04-14T00:43:26.630Z,18.57
2019-04-14T00:46:02.349Z,20.03
2019-04-14T00:48:32.028Z,20.20
2019-04-14T00:51:00.928Z,21.10
2019-04-14T00:53:29.825Z,20.13
2019-04-14T00:55:59.718Z,19.40
2019-04-14T00:58:29.899Z,19.23
2019-04-14T01:00:58.993Z,20.17
2019-04-14T01:03:28.740Z,20.67
2019-04-14T01:05:58.928Z,19.77
2019-04-14T01:08:29.161Z,19.47
2019-04-14T01:10:58.394Z,20.40
2019-04-14T01:13:27.343Z,21.63
2019-04-14T01:16:03.889Z,19.30
2019-04-14T01:18:27.634Z,19.63
2019-04-14T01:20:57.845Z,20.47
2019-04-14T01:23:28.210Z,19.73
2019-04-14T01:25:58.385Z,20.13
2019-04-14T01:28:28.694Z,20.10
2019-04-14T01:30:58.932Z,20.60
2019-04-14T01:33:29.287Z,20.70
2019-04-14T01:35:59.507Z,19.70
2019-04-14T01:38:29.705Z,20.77
2019-04-14T01:40:59.833Z,21.07
2019-04-14T01:43:29.980Z,20.07
2019-04-14T01:46:08.019Z,19.47
2019-04-14T01:48:30.056Z,19.87
2019-04-14T01:51:09.234Z,21.07
2019-04-14T01:53:46.687Z,20.53
2019-04-14T01:57:03.185Z,19.67
2019-04-14T01:59:32.659Z,18.97
2019-04-14T02:02:02.996Z,19.57
2019-04-14T02:04:31.952Z,19.17
2019-04-14T02:07:01.628Z,21.33
2019-04-14T02:09:31.636Z,20.40
2019-04-14T02:12:01.635Z,21.00
2019-04-14T02:14:30.580Z,20.93
2019-04-14T02:17:02.216Z,20.63
2019-04-14T02:19:30.644Z,21.13
2019-04-14T02:22:00.614Z,19.90
2019-04-14T02:24:30.915Z,20.07
2019-04-14T02:27:01.173Z,20.67
2019-04-14T02:29:30.221Z,20.43
2019-04-14T02:32:30.216Z,21.23
2019-04-14T02:35:00.253Z,21.33
2019-04-14T02:37:31.879Z,21.60
2019-04-14T02:40:03.845Z,20.23
2019-04-14T02:42:44.088Z,19.63
2019-04-14T02:45:02.469Z,20.63
2019-04-14T02:47:48.953Z,19.27
2019-04-14T02:49:59.717Z,20.40
2019-04-14T02:52:29.891Z,20.03
2019-04-14T02:54:59.698Z,21.40
2019-04-14T02:57:30.952Z,20.20
2019-04-14T03:00:07.895Z,20.77
2019-04-14T03:02:40.914Z,20.70
2019-04-14T03:10:01.282Z,19.37
2019-04-14T03:18:24.049Z,20.87
2019-04-14T03:21:15.463Z,20.33
2019-04-14T03:23:57.906Z,19.87
2019-04-14T03:26:33.971Z,21.93
2019-04-14T03:29:19.585Z,20.67
2019-04-14T03:31:59.690Z,20.13
2019-04-14T03:34:34.555Z,19.17
2019-04-14T03:39:15.577Z,19.23
2019-04-14T03:41:45.591Z,20.53
2019-04-14T03:44:18.614Z,21.80
2019-04-14T03:49:26.301Z,19.20
2019-04-14T03:51:50.539Z,20.77
2019-04-14T03:54:15.951Z,19.03
2019-04-14T03:56:46.674Z,19.30
2019-04-14T03:59:17.537Z,19.83
2019-04-14T04:01:47.748Z,21.17
2019-04-14T04:04:16.880Z,20.60
2019-04-14T04:06:46.394Z,20.87
2019-04-14T04:09:15.381Z,19.27
2019-04-14T04:11:45.521Z,20.27
2019-04-14T04:14:14.473Z,21.93
2019-04-14T04:17:01.558Z,19.63
2019-04-14T04:19:53.562Z,19.00
2019-04-14T04:22:41.199Z,20.37
2019-04-14T04:25:24.725Z,21.67
2019-04-14T04:28:12.862Z,20.50
2019-04-14T04:30:47.005Z,21.57
2019-04-14T04:33:24.617Z,20.70
2019-04-14T04:35:58.323Z,21.40
2019-04-14T04:38:46.328Z,20.73
2019-04-14T04:41:16.745Z,22.20
2019-04-14T04:43:45.781Z,22.00
2019-04-14T04:46:15.594Z,21.57
2019-04-14T04:48:57.467Z,21.70
2019-04-14T04:51:16.022Z,20.97
2019-04-14T04:53:45.994Z,21.40
2019-04-14T04:56:15.125Z,22.53
2019-04-14T04:58:43.982Z,21.63
2019-04-14T05:01:12.857Z,22.47
2019-04-14T05:03:42.782Z,23.10
2019-04-14T05:06:54.785Z,22.53
2019-04-14T05:09:42.723Z,21.47
2019-04-14T05:12:19.681Z,22.33
2019-04-14T05:14:54.493Z,22.27
2019-04-14T05:17:23.597Z,23.33
2019-04-14T05:19:52.485Z,21.53
2019-04-14T05:22:22.313Z,22.67
2019-04-14T05:24:51.299Z,21.80
2019-04-14T05:27:21.060Z,23.30
2019-04-14T05:29:51.467Z,22.40
2019-04-14T05:32:21.546Z,22.07
2019-04-14T05:34:50.513Z,22.60
2019-04-14T05:37:20.301Z,21.93
2019-04-14T05:39:50.402Z,22.30
2019-04-14T05:42:24.044Z,21.97
2019-04-14T05:44:49.910Z,22.30
2019-04-14T05:47:19.730Z,21.77
2019-04-14T05:49:52.697Z,22.10
2019-04-14T05:52:20.633Z,22.00
2019-04-14T05:54:49.855Z,22.00
2019-04-14T05:57:19.781Z,22.30
2019-04-14T05:59:48.741Z,22.40
2019-04-14T06:02:18.077Z,22.67
2019-04-14T06:04:48.154Z,22.27
2019-04-14T06:07:17.264Z,22.07
2019-04-14T06:09:46.077Z,23.57
2019-04-14T06:12:15.209Z,22.50
2019-04-14T06:14:44.338Z,21.90
2019-04-14T06:17:13.150Z,22.00
2019-04-14T06:19:41.966Z,23.40
2019-04-14T06:22:11.484Z,22.00
2019-04-14T06:24:40.313Z,22.80
2019-04-14T06:27:09.361Z,23.57
2019-04-14T06:29:38.188Z,23.70
2019-04-14T06:32:35.392Z,21.13
2019-04-14T06:35:48.568Z,20.73
2019-04-14T06:38:23.984Z,22.00
2019-04-14T06:41:01.800Z,20.57
2019-04-14T06:43:30.857Z,21.30
2019-04-14T06:45:59.857Z,21.23
2019-04-14T06:48:28.910Z,21.20
2019-04-14T06:50:57.969Z,21.43
2019-04-14T06:53:27.092Z,22.03
2019-04-14T06:55:56.481Z,20.47
2019-04-14T06:58:25.370Z,20.87
2019-04-14T07:00:54.205Z,21.53
2019-04-14T07:03:23.040Z,19.83
2019-04-14T07:05:51.868Z,20.57
2019-04-14T07:08:20.676Z,20.53
2019-04-14T07:10:49.817Z,21.20
2019-04-14T07:13:19.683Z,22.70
2019-04-14T07:15:48.725Z,21.10
2019-04-14T07:18:17.538Z,20.17
2019-04-14T07:20:46.354Z,21.77
2019-04-14T07:23:15.406Z,20.70
2019-04-14T07:25:44.308Z,21.13
2019-04-14T07:28:13.129Z,22.37
2019-04-14T07:31:00.174Z,22.27
2019-04-14T07:33:38.746Z,21.07
2019-04-14T07:36:32.910Z,21.93
2019-04-14T07:39:27.214Z,21.63
2019-04-14T07:42:02.579Z,21.68
2019-04-14T07:44:53.373Z,22.85
2019-04-14T07:47:41.256Z,22.07
2019-04-14T07:50:37.857Z,21.80
2019-04-14T07:53:41.052Z,22.98
2019-04-14T07:56:20.289Z,20.43
2019-04-14T07:59:07.381Z,21.85
2019-04-14T08:02:01.821Z,22.52
2019-04-14T08:04:33.882Z,21.23
2019-04-14T08:07:02.718Z,23.05
2019-04-14T08:09:31.537Z,24.12
2019-04-14T08:12:00.512Z,22.40
2019-04-14T08:14:29.333Z,24.47
2019-04-14T08:16:58.336Z,22.95
2019-04-14T08:19:27.232Z,22.98
2019-04-14T08:21:56.064Z,21.68
2019-04-14T08:24:33.742Z,22.37
2019-04-14T08:27:02.570Z,22.82
2019-04-14T08:29:31.395Z,23.20
2019-04-14T08:32:00.457Z,31.73
2019-04-14T08:34:29.354Z,24.43
2019-04-14T08:36:58.177Z,27.13
2019-04-14T08:39:27.237Z,30.17
2019-04-14T08:42:13.241Z,24.35
2019-04-14T08:44:44.253Z,22.45
2019-04-14T08:47:50.651Z,22.85
2019-04-14T08:50:39.762Z,21.82
2019-04-14T08:53:26.484Z,24.50
2019-04-14T08:56:06.672Z,23.05
2019-04-14T08:59:03.537Z,23.40
2019-04-14T09:01:46.913Z,21.90
2019-04-14T09:04:20.664Z,24.10
2019-04-14T09:06:57.353Z,23.25
2019-04-14T09:09:39.209Z,22.02
2019-04-14T09:12:15.636Z,23.20
2019-04-14T09:14:56.192Z,21.30
2019-04-14T09:17:15.704Z,21.52
2019-04-14T09:19:44.613Z,21.80
2019-04-14T09:22:13.441Z,21.80
2019-04-14T09:24:42.568Z,21.85
2019-04-14T09:27:11.472Z,23.07
2019-04-14T09:29:40.292Z,22.42
2019-04-14T09:32:10.455Z,21.93
2019-04-14T09:34:39.910Z,22.25
2019-04-14T09:37:09.046Z,21.55
2019-04-14T09:39:37.949Z,21.95
2019-04-14T09:42:06.801Z,22.70
2019-04-14T09:44:35.633Z,20.02
2019-04-14T09:47:04.790Z,22.25
2019-04-14T09:49:33.689Z,22.30
2019-04-14T09:52:02.584Z,22.10
2019-04-14T09:54:31.648Z,20.70
2019-04-14T09:57:00.474Z,19.67
2019-04-14T09:59:29.382Z,22.32
2019-04-14T10:01:58.220Z,21.05
2019-04-14T10:04:27.241Z,19.52
2019-04-14T10:06:56.054Z,21.42
2019-04-14T10:09:25.043Z,21.68
2019-04-14T10:11:56.455Z,22.10
2019-04-14T10:14:24.491Z,22.32
2019-04-14T10:16:53.324Z,21.12
2019-04-14T10:19:22.236Z,19.55
2019-04-14T10:21:51.061Z,25.77
2019-04-14T10:24:19.896Z,20.23
2019-04-14T10:26:48.728Z,20.45
2019-04-14T10:29:17.549Z,33.42
2019-04-14T10:31:46.677Z,21.60
2019-04-14T10:34:34.965Z,21.70
2019-04-14T10:37:03.777Z,20.00
2019-04-14T10:39:32.913Z,20.45
2019-04-14T10:42:02.117Z,23.80
2019-04-14T10:44:30.950Z,19.17
2019-04-14T10:46:59.769Z,20.50
2019-04-14T10:49:28.913Z,19.25
2019-04-14T10:51:57.728Z,18.40
2019-04-14T10:54:26.701Z,19.40
2019-04-14T10:56:55.524Z,17.02
2019-04-14T10:59:43.576Z,17.48
2019-04-14T11:02:12.720Z,17.32
2019-04-14T11:04:41.622Z,18.17
2019-04-14T11:07:21.739Z,16.75
2019-04-14T11:09:50.685Z,16.77
2019-04-14T11:12:19.544Z,17.27
2019-04-14T11:14:48.862Z,17.55
2019-04-14T11:17:17.963Z,16.87
2019-04-14T11:19:46.783Z,17.65
2019-04-14T11:22:15.609Z,17.30
2019-04-14T11:24:44.445Z,17.90
2019-04-14T11:27:13.416Z,17.23
2019-04-14T11:29:42.249Z,18.45
2019-04-14T11:32:36.272Z,17.32
2019-04-14T11:35:22.148Z,18.42
2019-04-14T11:38:13.195Z,16.90
2019-04-14T11:40:45.234Z,16.55
2019-04-14T11:43:14.280Z,15.88
2019-04-14T11:45:43.450Z,16.42
2019-04-14T11:48:12.340Z,16.10
2019-04-14T11:50:41.412Z,15.95
2019-04-14T11:53:10.229Z,16.50
2019-04-14T11:55:39.468Z,15.58
2019-04-14T11:58:08.365Z,16.50
2019-04-14T12:00:50.588Z,15.80
2019-04-14T12:03:25.562Z,17.35
2019-04-14T12:06:09.072Z,15.88
2019-04-14T12:09:02.774Z,15.05
2019-04-14T12:11:31.836Z,16.07
2019-04-14T12:14:00.660Z,15.30
2019-04-14T12:16:29.485Z,15.15
2019-04-14T12:18:58.309Z,14.90
2019-04-14T12:21:27.220Z,14.98
2019-04-14T12:23:56.036Z,16.48
2019-04-14T12:26:25.177Z,15.18
2019-04-14T12:29:14.117Z,16.42
2019-04-14T12:31:44.107Z,16.27
2019-04-14T12:34:13.380Z,17.10
2019-04-14T12:36:42.287Z,16.42
2019-04-14T12:39:20.762Z,18.12
2019-04-14T12:42:08.813Z,15.32
2019-04-14T12:44:55.644Z,15.90
2019-04-14T12:47:55.792Z,15.83
2019-04-14T12:50:28.856Z,15.83
2019-04-14T12:52:58.278Z,16.85
2019-04-14T12:55:27.182Z,15.48
2019-04-14T12:57:58.910Z,16.23
2019-04-14T13:00:59.193Z,16.12
2019-04-14T13:03:29.589Z,16.27
2019-04-14T13:05:58.636Z,15.65
2019-04-14T13:08:27.537Z,17.27
2019-04-14T13:10:56.510Z,16.95
2019-04-14T13:13:25.649Z,17.37
2019-04-14T13:15:54.708Z,17.48
2019-04-14T13:18:23.608Z,16.20
2019-04-14T13:20:52.492Z,16.42
2019-04-14T13:23:21.560Z,16.85
2019-04-14T13:25:50.461Z,16.90
2019-04-14T13:28:19.296Z,16.20
2019-04-14T13:30:49.985Z,16.60
2019-04-14T13:33:18.896Z,16.57
2019-04-14T13:35:47.860Z,16.93
2019-04-14T13:38:16.699Z,17.27
2019-04-14T13:40:45.761Z,17.10
2019-04-14T13:43:14.825Z,16.87
2019-04-14T13:45:43.730Z,19.35
2019-04-14T13:48:12.549Z,20.43
2019-04-14T13:50:42.100Z,17.80
2019-04-14T13:53:10.939Z,21.52
2019-04-14T13:55:39.772Z,33.08
2019-04-14T13:58:08.859Z,20.00
2019-04-14T14:00:38.529Z,22.87
2019-04-14T14:03:07.684Z,26.68
2019-04-14T14:05:36.499Z,16.85
2019-04-14T14:08:05.487Z,16.97
2019-04-14T14:10:34.384Z,18.25
2019-04-14T14:13:40.756Z,17.65
2019-04-14T14:16:18.069Z,16.52
2019-04-14T14:18:56.806Z,17.05
2019-04-14T14:21:41.899Z,16.97
2019-04-14T14:24:28.844Z,18.80
2019-04-14T14:26:57.673Z,18.30
2019-04-14T14:29:26.505Z,16.15
2019-04-14T14:31:56.085Z,17.42
2019-04-14T14:34:24.985Z,17.40
2019-04-14T14:36:53.951Z,18.92
2019-04-14T14:39:22.917Z,18.70
2019-04-14T14:41:51.740Z,17.83
2019-04-14T14:44:22.419Z,18.33
2019-04-14T14:47:01.948Z,18.27
2019-04-14T14:50:05.540Z,17.37
2019-04-14T14:52:35.308Z,18.43
2019-04-14T14:55:04.798Z,18.23
2019-04-14T14:57:33.702Z,19.10
2019-04-14T15:00:02.605Z,16.52
2019-04-14T15:02:31.592Z,16.93
2019-04-14T15:05:00.429Z,15.77
2019-04-14T15:07:29.249Z,17.47
2019-04-14T15:09:58.068Z,16.30
2019-04-14T15:12:26.888Z,18.05
2019-04-14T15:14:55.713Z,18.03
2019-04-14T15:17:25.225Z,17.75
2019-04-14T15:19:54.125Z,17.82
2019-04-14T15:22:23.088Z,16.23
2019-04-14T15:25:11.209Z,16.50
2019-04-14T15:27:40.283Z,16.30
2019-04-14T15:30:14.229Z,16.40
2019-04-14T15:32:43.110Z,14.57
2019-04-14T15:35:12.089Z,15.30
2019-04-14T15:37:41.201Z,17.37
2019-04-14T15:40:10.568Z,15.70
2019-04-14T15:42:39.625Z,14.30
2019-04-14T15:45:09.724Z,14.60
2019-04-14T15:47:38.557Z,14.77
2019-04-14T15:50:08.060Z,23.03
2019-04-14T15:52:37.090Z,15.67
2019-04-14T15:55:06.358Z,15.10
2019-04-14T15:57:46.553Z,15.10
2019-04-14T16:00:34.590Z,16.43
2019-04-14T16:03:23.552Z,14.63
2019-04-14T16:06:10.536Z,16.20
2019-04-14T16:08:45.533Z,16.13
2019-04-14T16:11:32.556Z,18.33
2019-04-14T16:14:19.436Z,15.87
2019-04-14T16:17:10.898Z,16.00
2019-04-14T16:19:53.525Z,14.73
2019-04-14T16:22:22.592Z,17.13
2019-04-14T16:24:51.405Z,15.07
2019-04-14T16:27:39.312Z,16.23
2019-04-14T16:30:27.876Z,18.20
2019-04-14T16:33:18.804Z,15.83
2019-04-14T16:35:47.985Z,16.70
2019-04-14T16:38:17.493Z,14.87
2019-04-14T16:40:46.617Z,15.47
2019-04-14T16:43:15.524Z,15.33
2019-04-14T16:45:44.419Z,15.33
2019-04-14T16:48:13.549Z,15.07
2019-04-14T16:50:42.360Z,21.27
2019-04-14T16:53:18.979Z,18.37
2019-04-14T16:56:09.764Z,23.60
2019-04-14T16:59:03.925Z,16.53
2019-04-14T17:01:35.412Z,17.37
2019-04-14T17:04:04.592Z,17.07
2019-04-14T17:06:33.668Z,17.30
2019-04-14T17:09:02.781Z,18.17
2019-04-14T17:11:31.832Z,16.57
2019-04-14T17:14:11.108Z,17.40
2019-04-14T17:16:50.858Z,16.33
2019-04-14T17:19:24.493Z,16.73
2019-04-14T17:22:08.748Z,17.53
2019-04-14T17:24:49.825Z,15.90
2019-04-14T17:27:46.428Z,16.20
2019-04-14T17:30:49.585Z,16.40
2019-04-14T17:33:43.069Z,16.13
2019-04-14T17:36:26.957Z,14.47
2019-04-14T17:39:10.241Z,16.17
2019-04-14T17:41:58.505Z,16.97
2019-04-14T17:44:46.408Z,17.67
2019-04-14T17:47:36.874Z,17.37
2019-04-14T17:50:14.925Z,17.53
2019-04-14T17:52:47.470Z,16.83
2019-04-14T17:55:27.918Z,16.27
2019-04-14T17:58:15.865Z,16.50
2019-04-14T18:01:02.668Z,18.80
2019-04-14T18:03:38.931Z,17.37
2019-04-14T18:06:12.716Z,19.67
2019-04-14T18:09:06.634Z,17.90
2019-04-14T18:11:49.508Z,18.10
2019-04-14T18:14:41.373Z,18.77
2019-04-14T18:17:30.399Z,17.30
2019-04-14T18:20:05.550Z,18.00
2019-04-14T18:22:34.762Z,18.17
2019-04-14T18:25:04.760Z,18.03
2019-04-14T18:27:38.153Z,19.40
2019-04-14T18:30:16.225Z,19.70
2019-04-14T18:33:03.106Z,20.20
2019-04-14T18:35:37.081Z,17.07
2019-04-14T18:38:16.405Z,16.67
2019-04-14T18:40:55.236Z,17.07
2019-04-14T18:43:41.632Z,17.20
2019-04-14T18:46:29.849Z,17.00
2019-04-14T18:49:13.748Z,16.57
2019-04-14T18:51:54.893Z,17.40
2019-04-14T18:54:53.784Z,17.57
2019-04-14T18:57:43.993Z,16.57
2019-04-14T19:00:34.784Z,19.27
2019-04-14T19:03:03.693Z,21.53
2019-04-14T19:05:32.513Z,17.57
2019-04-14T19:08:01.412Z,17.60
2019-04-14T19:10:30.758Z,18.57
2019-04-14T19:13:11.613Z,17.80
2019-04-14T19:15:46.929Z,16.37
2019-04-14T19:18:21.585Z,17.77
2019-04-14T19:20:56.736Z,18.17
2019-04-14T19:23:25.629Z,28.53
2019-04-14T19:25:54.538Z,18.97
2019-04-14T19:28:23.345Z,20.00
2019-04-14T19:30:52.164Z,20.87
2019-04-14T19:33:21.407Z,18.50
2019-04-14T19:35:50.231Z,19.57
2019-04-14T19:38:19.082Z,25.90
2019-04-14T19:40:48.152Z,18.20
2019-04-14T19:43:23.657Z,17.47
2019-04-14T19:45:47.608Z,18.43
2019-04-14T19:48:16.788Z,18.00
2019-04-14T19:50:45.898Z,18.93
2019-04-14T19:53:14.965Z,18.87
2019-04-14T19:55:44.511Z,18.27
2019-04-14T19:58:13.637Z,27.10
2019-04-14T20:00:43.208Z,19.53
2019-04-14T20:03:20.269Z,20.37
2019-04-14T20:06:16.477Z,18.50
2019-04-14T20:08:45.949Z,18.27
2019-04-14T20:11:15.245Z,18.53
2019-04-14T20:13:46.772Z,19.30
2019-04-14T20:16:48.213Z,19.20
2019-04-14T20:19:54.720Z,18.57
2019-04-14T20:22:32.086Z,18.77
2019-04-14T20:25:12.028Z,20.03
2019-04-14T20:27:47.983Z,20.83
2019-04-14T20:30:31.810Z,21.20
2019-04-14T20:33:00.933Z,20.63
2019-04-14T20:35:33.198Z,21.33
2019-04-14T20:38:02.369Z,20.63
2019-04-14T20:40:31.362Z,22.77
2019-04-14T20:43:00.209Z,21.07
2019-04-14T20:45:29.252Z,21.40
2019-04-14T20:47:58.419Z,21.70
2019-04-14T20:50:27.354Z,21.17
2019-04-14T20:52:56.262Z,21.87
2019-04-14T20:55:25.109Z,21.47
2019-04-14T20:57:54.105Z,21.63
2019-04-14T21:00:23.169Z,21.53
2019-04-14T21:03:06.141Z,23.33
2019-04-14T21:05:52.260Z,24.37
2019-04-14T21:08:45.219Z,24.10
2019-04-14T21:11:27.167Z,22.93
2019-04-14T21:14:06.361Z,24.03
2019-04-14T21:16:43.225Z,22.23
2019-04-14T21:19:17.446Z,23.63
2019-04-14T21:21:53.422Z,24.30
2019-04-14T21:24:36.257Z,24.43
2019-04-14T21:27:19.452Z,24.60
2019-04-14T21:30:25.615Z,23.30
2019-04-14T21:33:01.349Z,24.80
2019-04-14T21:35:51.937Z,25.80
2019-04-14T21:38:45.961Z,24.40
2019-04-14T21:41:19.341Z,24.10
2019-04-14T21:43:48.253Z,26.77
2019-04-14T21:46:17.168Z,24.70
2019-04-14T21:48:46.040Z,25.43
2019-04-14T21:51:14.997Z,25.27
2019-04-14T21:53:44.770Z,26.40
2019-04-14T21:56:13.980Z,26.30
2019-04-14T21:58:57.312Z,25.57
2019-04-14T22:01:53.461Z,26.27
2019-04-14T22:04:53.892Z,26.37
2019-04-14T22:07:29.772Z,27.03
2019-04-14T22:10:05.351Z,26.70
2019-04-14T22:12:34.922Z,28.80
2019-04-14T22:15:04.047Z,26.60
2019-04-14T22:17:33.435Z,27.67
2019-04-14T22:20:02.420Z,28.80
2019-04-14T22:22:31.261Z,27.57
2019-04-14T22:25:00.158Z,29.07
2019-04-14T22:27:29.071Z,28.73
2019-04-14T22:29:57.993Z,29.33
2019-04-14T22:32:26.897Z,28.97
2019-04-14T22:34:55.825Z,28.40
2019-04-14T22:37:24.889Z,30.50
2019-04-14T22:39:53.822Z,29.30
2019-04-14T22:42:22.719Z,27.70
2019-04-14T22:44:51.569Z,29.63
2019-04-14T22:47:20.649Z,28.73
2019-04-14T22:49:49.825Z,29.43
2019-04-14T22:52:18.956Z,27.93
2019-04-14T22:54:47.806Z,29.17
2019-04-14T22:57:16.708Z,28.20
2019-04-14T22:59:45.545Z,28.93
2019-04-14T23:02:33.008Z,28.83
2019-04-14T23:05:17.176Z,29.07
2019-04-14T23:07:55.297Z,28.40
2019-04-14T23:10:53.275Z,30.07
2019-04-14T23:13:37.833Z,29.70
2019-04-14T23:16:41.255Z,30.10
2019-04-14T23:19:14.145Z,31.23
2019-04-14T23:21:57.909Z,30.33
2019-04-14T23:24:30.189Z,29.17
2019-04-14T23:26:59.468Z,29.90
2019-04-14T23:29:28.454Z,27.47
2019-04-14T23:31:57.378Z,31.57
2019-04-14T23:34:26.756Z,30.40
2019-04-14T23:36:55.666Z,29.17
2019-04-14T23:39:24.513Z,29.93
2019-04-14T23:41:53.534Z,28.63
2019-04-14T23:44:22.918Z,28.83
2019-04-14T23:46:51.834Z,30.80
2019-04-14T23:49:20.683Z,30.77
2019-04-14T23:51:49.797Z,30.73
2019-04-14T23:54:18.721Z,30.60
2019-04-14T23:56:47.639Z,30.83
2019-04-14T23:59:16.679Z,30.47
